createdAt,value
2018-10-17T00:01:38.612Z,99.90
2018-10-17T00:04:06.990Z,99.90
2018-10-17T00:06:36.402Z,99.90
2018-10-17T00:09:07.058Z,99.90
2018-10-17T00:11:35.639Z,99.90
2018-10-17T00:14:04.748Z,99.90
2018-10-17T00:16:33.419Z,99.90
2018-10-17T00:19:02.321Z,99.90
2018-10-17T00:21:31.197Z,99.90
2018-10-17T00:23:59.918Z,99.90
2018-10-17T00:26:29.121Z,99.90
2018-10-17T00:28:57.840Z,99.90
2018-10-17T00:31:27.632Z,99.90
2018-10-17T00:33:56.623Z,99.90
2018-10-17T00:36:25.087Z,99.90
2018-10-17T00:38:53.879Z,99.90
2018-10-17T00:41:22.368Z,99.90
2018-10-17T00:43:50.860Z,99.90
2018-10-17T00:46:19.810Z,99.90
2018-10-17T00:48:48.692Z,99.90
2018-10-17T00:51:18.820Z,99.90
2018-10-17T00:53:47.280Z,99.90
2018-10-17T00:56:15.883Z,99.90
2018-10-17T00:58:48.568Z,99.90
2018-10-17T01:01:17.051Z,99.90
2018-10-17T01:03:45.694Z,99.90
2018-10-17T01:06:14.406Z,99.90
2018-10-17T01:08:43.068Z,99.90
2018-10-17T01:11:12.882Z,99.90
2018-10-17T01:13:41.690Z,99.90
2018-10-17T01:16:10.347Z,99.90
2018-10-17T01:18:40.071Z,99.90
2018-10-17T01:21:09.127Z,99.90
2018-10-17T01:23:38.092Z,99.90
2018-10-17T01:26:07.224Z,99.90
2018-10-17T01:28:35.800Z,99.90
2018-10-17T01:31:04.990Z,99.90
2018-10-17T01:33:34.075Z,99.90
2018-10-17T01:36:02.486Z,99.90
2018-10-17T01:38:31.090Z,99.90
2018-10-17T01:40:59.993Z,99.90
2018-10-17T01:43:28.740Z,99.90
2018-10-17T01:45:57.855Z,99.90
2018-10-17T01:48:27.774Z,99.90
2018-10-17T01:50:56.249Z,99.90
2018-10-17T01:53:24.891Z,99.90
2018-10-17T01:55:53.498Z,99.90
2018-10-17T01:58:22.352Z,99.90
2018-10-17T02:00:50.830Z,99.90
2018-10-17T02:03:19.552Z,99.90
2018-10-17T02:05:48.005Z,99.90
2018-10-17T02:08:16.587Z,99.90
2018-10-17T02:10:45.380Z,99.90
2018-10-17T02:13:14.004Z,99.90
2018-10-17T02:15:42.882Z,99.90
2018-10-17T02:18:11.546Z,99.90
2018-10-17T02:20:40.196Z,99.90
2018-10-17T02:23:08.986Z,99.90
2018-10-17T02:25:37.326Z,99.90
2018-10-17T02:28:06.127Z,99.90
2018-10-17T02:30:34.879Z,99.90
2018-10-17T02:33:03.537Z,99.90
2018-10-17T02:35:32.225Z,99.90
2018-10-17T02:38:00.496Z,99.90
2018-10-17T02:40:29.058Z,99.90
2018-10-17T02:42:57.523Z,99.90
2018-10-17T02:45:25.999Z,99.90
2018-10-17T02:47:54.309Z,99.90
2018-10-17T02:50:22.827Z,99.90
2018-10-17T02:52:51.408Z,99.90
2018-10-17T02:55:19.693Z,99.90
2018-10-17T02:57:48.251Z,99.90
2018-10-17T03:00:16.872Z,99.90
2018-10-17T03:02:46.341Z,99.90
2018-10-17T03:05:14.662Z,99.90
2018-10-17T03:07:43.005Z,99.90
2018-10-17T03:10:11.392Z,99.90
2018-10-17T03:12:39.875Z,99.90
2018-10-17T03:15:09.130Z,99.90
2018-10-17T03:17:38.205Z,99.90
2018-10-17T03:20:07.314Z,99.90
2018-10-17T03:22:35.708Z,99.90
2018-10-17T03:25:04.905Z,99.90
2018-10-17T03:27:33.768Z,99.90
2018-10-17T03:30:03.668Z,99.90
2018-10-17T03:32:31.909Z,99.90
2018-10-17T03:35:01.030Z,99.90
2018-10-17T03:37:29.849Z,99.90
2018-10-17T03:39:58.373Z,99.90
2018-10-17T03:42:27.126Z,99.90
2018-10-17T03:44:55.402Z,99.90
2018-10-17T03:47:23.881Z,99.90
2018-10-17T03:49:52.652Z,99.90
2018-10-17T03:52:21.354Z,99.90
2018-10-17T03:54:49.888Z,99.90
2018-10-17T03:57:18.534Z,99.90
2018-10-17T03:59:47.423Z,99.90
2018-10-17T04:02:16.060Z,99.90
2018-10-17T04:04:44.815Z,99.90
2018-10-17T04:07:14.167Z,99.90
2018-10-17T04:09:42.830Z,99.90
2018-10-17T04:12:12.212Z,99.90
2018-10-17T04:14:40.536Z,99.90
2018-10-17T04:17:08.969Z,99.90
2018-10-17T04:19:37.608Z,99.90
2018-10-17T04:22:06.219Z,99.90
2018-10-17T04:24:35.260Z,99.90
2018-10-17T04:27:04.412Z,99.90
2018-10-17T04:29:33.095Z,99.90
2018-10-17T04:32:01.858Z,99.90
2018-10-17T04:34:30.468Z,99.90
2018-10-17T04:36:59.827Z,99.90
2018-10-17T04:39:28.266Z,99.90
2018-10-17T04:41:57.276Z,99.90
2018-10-17T04:44:26.086Z,99.90
2018-10-17T04:46:55.053Z,99.90
2018-10-17T04:49:24.375Z,99.90
2018-10-17T04:51:53.016Z,99.90
2018-10-17T04:54:21.457Z,99.90
2018-10-17T04:56:50.188Z,99.90
2018-10-17T04:59:18.974Z,99.90
2018-10-17T05:01:47.493Z,99.90
2018-10-17T05:04:15.876Z,99.90
2018-10-17T05:06:43.625Z,99.90
2018-10-17T05:09:11.607Z,99.90
2018-10-17T05:11:40.347Z,99.90
2018-10-17T05:14:08.280Z,99.90
2018-10-17T05:16:37.105Z,99.90
2018-10-17T05:19:05.172Z,99.90
2018-10-17T05:21:33.001Z,99.90
2018-10-17T05:24:01.240Z,99.90
2018-10-17T05:26:29.638Z,99.90
2018-10-17T05:28:57.588Z,99.90
2018-10-17T05:31:25.932Z,99.90
2018-10-17T05:33:53.925Z,99.90
2018-10-17T05:36:22.047Z,99.90
2018-10-17T05:38:49.920Z,99.90
2018-10-17T05:41:17.780Z,99.90
2018-10-17T05:43:45.628Z,99.90
2018-10-17T05:46:13.442Z,99.90
2018-10-17T05:48:41.348Z,99.90
2018-10-17T05:51:09.317Z,99.90
2018-10-17T05:53:37.283Z,99.90
2018-10-17T05:56:05.291Z,99.90
2018-10-17T05:58:33.143Z,99.90
2018-10-17T06:01:01.117Z,99.90
2018-10-17T06:03:29.114Z,99.90
2018-10-17T06:05:57.072Z,99.90
2018-10-17T06:08:25.016Z,99.90
2018-10-17T06:10:52.926Z,99.90
2018-10-17T06:13:20.969Z,99.90
2018-10-17T06:15:48.741Z,99.90
2018-10-17T06:18:16.553Z,99.90
2018-10-17T06:20:44.521Z,99.90
2018-10-17T06:23:12.462Z,99.90
2018-10-17T06:25:40.318Z,99.90
2018-10-17T06:28:08.168Z,99.90
2018-10-17T06:30:35.996Z,99.90
2018-10-17T06:33:03.820Z,99.90
2018-10-17T06:35:31.709Z,99.90
2018-10-17T06:37:59.638Z,99.90
2018-10-17T06:40:27.491Z,99.90
2018-10-17T06:42:55.313Z,99.90
2018-10-17T06:45:23.241Z,99.90
2018-10-17T06:47:51.253Z,99.90
2018-10-17T06:50:19.082Z,99.90
2018-10-17T06:52:46.848Z,99.90
2018-10-17T06:55:14.650Z,99.90
2018-10-17T06:57:42.372Z,99.90
2018-10-17T07:00:11.039Z,99.90
2018-10-17T07:02:38.912Z,99.90
2018-10-17T07:05:06.951Z,99.90
2018-10-17T07:07:34.718Z,99.90
2018-10-17T07:10:02.530Z,99.90
2018-10-17T07:12:30.372Z,99.90
2018-10-17T07:14:58.104Z,99.90
2018-10-17T07:17:25.848Z,99.90
2018-10-17T07:19:53.562Z,99.90
2018-10-17T07:22:21.316Z,99.90
2018-10-17T07:24:49.087Z,99.90
2018-10-17T07:27:16.830Z,99.90
2018-10-17T07:29:44.720Z,99.90
2018-10-17T07:32:12.340Z,99.90
2018-10-17T07:34:40.115Z,99.90
2018-10-17T07:37:08.389Z,99.90
2018-10-17T07:39:36.128Z,99.90
2018-10-17T07:42:03.929Z,99.90
2018-10-17T07:44:31.684Z,99.90
2018-10-17T07:46:59.415Z,99.90
2018-10-17T07:49:27.179Z,99.90
2018-10-17T07:51:54.844Z,99.90
2018-10-17T07:54:22.564Z,99.90
2018-10-17T07:56:50.404Z,99.90
2018-10-17T07:59:18.094Z,99.90
2018-10-17T08:01:45.834Z,99.90
2018-10-17T08:04:13.547Z,99.90
2018-10-17T08:06:41.378Z,99.90
2018-10-17T08:09:09.757Z,99.90
2018-10-17T08:11:37.737Z,99.90
2018-10-17T08:14:05.712Z,99.90
2018-10-17T08:16:33.716Z,99.90
2018-10-17T08:19:01.522Z,99.90
2018-10-17T08:21:29.342Z,99.90
2018-10-17T08:23:57.219Z,99.90
2018-10-17T08:26:24.950Z,99.90
2018-10-17T08:28:52.656Z,99.90
2018-10-17T08:31:20.546Z,99.90
2018-10-17T08:33:48.307Z,99.90
2018-10-17T08:36:16.247Z,99.90
2018-10-17T08:38:44.038Z,99.90
2018-10-17T08:41:11.878Z,99.90
2018-10-17T08:43:39.548Z,99.90
2018-10-17T08:46:07.288Z,99.90
2018-10-17T08:48:35.301Z,99.90
2018-10-17T08:51:03.112Z,99.90
2018-10-17T08:53:31.114Z,99.90
2018-10-17T08:55:58.963Z,99.90
2018-10-17T08:58:26.849Z,99.90
2018-10-17T09:00:54.653Z,99.90
2018-10-17T09:03:22.433Z,99.90
2018-10-17T09:05:50.144Z,99.90
2018-10-17T09:08:18.053Z,99.90
2018-10-17T09:10:45.706Z,99.90
2018-10-17T09:13:14.367Z,99.90
2018-10-17T09:15:42.073Z,99.90
2018-10-17T09:18:09.831Z,99.90
2018-10-17T09:20:37.923Z,99.90
2018-10-17T09:23:05.303Z,99.00
2018-10-17T09:25:33.195Z,98.50
2018-10-17T09:28:01.088Z,98.30
2018-10-17T09:30:28.878Z,97.70
2018-10-17T09:32:56.836Z,97.30
2018-10-17T09:35:24.728Z,97.40
2018-10-17T09:37:52.780Z,96.40
2018-10-17T09:40:20.742Z,95.90
2018-10-17T09:47:43.925Z,91.10
2018-10-17T09:50:11.873Z,91.50
2018-10-17T09:52:39.674Z,91.70
2018-10-17T09:55:08.214Z,90.90
2018-10-17T09:57:36.142Z,90.40
2018-10-17T10:00:04.311Z,90.00
2018-10-17T10:02:32.275Z,89.50
2018-10-17T10:05:00.179Z,88.20
2018-10-17T10:07:28.116Z,86.70
2018-10-17T10:09:56.222Z,86.00
2018-10-17T10:12:24.249Z,83.80
2018-10-17T10:14:53.042Z,82.30
2018-10-17T10:17:21.127Z,81.20
2018-10-17T10:19:49.020Z,80.50
2018-10-17T10:22:17.151Z,80.30
2018-10-17T10:24:45.199Z,80.20
2018-10-17T10:27:12.985Z,79.10
2018-10-17T10:29:40.757Z,78.30
2018-10-17T10:32:08.673Z,77.00
2018-10-17T10:34:36.837Z,73.60
2018-10-17T10:37:04.850Z,72.70
2018-10-17T10:39:32.770Z,73.70
2018-10-17T10:42:00.734Z,74.00
2018-10-17T10:44:28.574Z,72.30
2018-10-17T10:46:56.710Z,71.20
2018-10-17T10:49:24.530Z,71.50
2018-10-17T10:51:52.709Z,71.60
2018-10-17T10:54:20.666Z,70.00
2018-10-17T10:56:49.741Z,70.20
2018-10-17T10:59:17.751Z,70.30
2018-10-17T11:01:45.728Z,70.70
2018-10-17T11:04:13.755Z,70.70
2018-10-17T11:06:41.826Z,70.10
2018-10-17T11:09:10.233Z,68.90
2018-10-17T11:11:38.584Z,67.20
2018-10-17T11:14:07.822Z,67.50
2018-10-17T11:16:37.565Z,67.50
2018-10-17T11:19:05.312Z,67.40
2018-10-17T11:21:33.187Z,66.70
2018-10-17T11:24:02.057Z,65.80
2018-10-17T11:26:29.901Z,66.10
2018-10-17T11:28:58.009Z,65.50
2018-10-17T11:31:32.882Z,65.00
2018-10-17T11:34:00.743Z,64.80
2018-10-17T11:36:28.820Z,64.40
2018-10-17T11:38:57.318Z,65.10
2018-10-17T11:41:27.410Z,64.80
2018-10-17T11:43:57.829Z,64.50
2018-10-17T11:46:26.744Z,64.70
2018-10-17T11:48:57.637Z,64.70
2018-10-17T11:56:32.632Z,64.30
2018-10-17T11:59:00.558Z,63.90
2018-10-17T12:01:29.935Z,63.30
2018-10-17T12:03:58.413Z,62.70
2018-10-17T12:06:28.543Z,61.30
2018-10-17T12:09:00.296Z,59.20
2018-10-17T12:11:28.105Z,59.00
2018-10-17T12:13:56.088Z,59.70
2018-10-17T12:16:24.026Z,59.90
2018-10-17T12:18:51.853Z,59.40
2018-10-17T12:21:19.636Z,58.30
2018-10-17T12:23:47.709Z,57.30
2018-10-17T12:26:16.015Z,56.80
2018-10-17T12:28:43.811Z,56.30
2018-10-17T12:31:11.537Z,56.00
2018-10-17T12:33:39.358Z,54.70
2018-10-17T12:36:07.198Z,54.80
2018-10-17T12:38:35.038Z,55.10
2018-10-17T12:41:03.104Z,55.30
2018-10-17T12:43:30.869Z,55.80
2018-10-17T12:45:58.547Z,56.40
2018-10-17T12:48:26.302Z,56.50
2018-10-17T12:50:54.127Z,57.10
2018-10-17T12:53:22.271Z,57.00
2018-10-17T12:55:52.589Z,57.20
2018-10-17T12:58:20.765Z,57.50
2018-10-17T13:00:48.648Z,57.80
2018-10-17T13:03:16.464Z,57.70
2018-10-17T13:05:44.334Z,58.50
2018-10-17T13:08:12.339Z,58.20
2018-10-17T13:10:40.087Z,58.50
2018-10-17T13:13:08.113Z,58.50
2018-10-17T13:15:35.868Z,58.70
2018-10-17T13:18:03.881Z,58.80
2018-10-17T13:20:31.563Z,58.90
2018-10-17T13:23:00.571Z,58.70
2018-10-17T13:25:28.364Z,58.80
2018-10-17T13:27:57.139Z,59.50
2018-10-17T13:30:25.014Z,59.10
2018-10-17T13:32:52.886Z,59.50
2018-10-17T13:35:21.469Z,58.90
2018-10-17T13:37:50.033Z,59.90
2018-10-17T13:40:17.974Z,59.30
2018-10-17T13:42:45.842Z,59.40
2018-10-17T13:45:14.721Z,59.30
2018-10-17T13:47:42.420Z,59.40
2018-10-17T13:50:10.254Z,59.60
2018-10-17T13:52:38.942Z,59.50
2018-10-17T13:55:07.063Z,59.50
2018-10-17T13:57:34.992Z,59.60
2018-10-17T14:00:02.796Z,59.80
2018-10-17T14:02:30.660Z,60.00
2018-10-17T14:04:58.543Z,60.20
2018-10-17T14:07:26.604Z,60.40
2018-10-17T14:09:54.375Z,60.70
2018-10-17T14:12:22.110Z,60.70
2018-10-17T14:14:49.843Z,60.20
2018-10-17T14:17:17.742Z,60.00
2018-10-17T14:19:45.510Z,60.00
2018-10-17T14:22:15.111Z,60.00
2018-10-17T14:24:42.973Z,60.10
2018-10-17T14:27:10.929Z,60.00
2018-10-17T14:29:38.846Z,60.30
2018-10-17T14:32:06.672Z,60.50
2018-10-17T14:34:34.615Z,60.60
2018-10-17T14:37:02.472Z,60.60
2018-10-17T14:39:30.331Z,60.30
2018-10-17T14:41:58.162Z,60.50
2018-10-17T14:44:25.939Z,60.30
2018-10-17T14:46:53.661Z,60.40
2018-10-17T14:49:21.527Z,60.60
2018-10-17T14:51:49.363Z,61.20
2018-10-17T14:54:17.189Z,61.50
2018-10-17T14:56:44.974Z,62.00
2018-10-17T14:59:12.793Z,61.80
2018-10-17T15:01:40.580Z,62.70
2018-10-17T15:04:08.819Z,62.80
2018-10-17T15:06:36.521Z,63.20
2018-10-17T15:09:06.085Z,62.70
2018-10-17T15:11:33.919Z,62.90
2018-10-17T15:14:01.612Z,64.10
2018-10-17T15:16:30.173Z,63.50
2018-10-17T15:18:58.204Z,63.60
2018-10-17T15:21:28.294Z,64.70
2018-10-17T15:23:56.074Z,64.20
2018-10-17T15:26:24.138Z,64.50
2018-10-17T15:28:51.894Z,64.70
2018-10-17T15:31:19.817Z,65.00
2018-10-17T15:33:47.807Z,66.10
2018-10-17T15:36:16.000Z,65.30
2018-10-17T15:38:43.846Z,65.90
2018-10-17T15:41:12.030Z,65.80
2018-10-17T15:43:40.008Z,66.10
2018-10-17T15:46:08.246Z,66.20
2018-10-17T15:48:36.496Z,66.70
2018-10-17T15:51:04.343Z,67.10
2018-10-17T15:53:32.211Z,66.60
2018-10-17T15:56:00.546Z,67.60
2018-10-17T15:58:35.094Z,67.80
2018-10-17T16:01:02.996Z,68.20
2018-10-17T16:03:30.841Z,68.30
2018-10-17T16:05:58.810Z,68.70
2018-10-17T16:08:26.995Z,69.20
2018-10-17T16:10:55.714Z,70.40
2018-10-17T16:13:23.563Z,69.90
2018-10-17T16:15:51.297Z,70.30
2018-10-17T16:18:20.966Z,70.60
2018-10-17T16:20:49.216Z,72.00
2018-10-17T16:23:17.165Z,71.20
2018-10-17T16:25:44.932Z,71.40
2018-10-17T16:28:12.868Z,71.60
2018-10-17T16:30:40.779Z,72.30
2018-10-17T16:33:08.619Z,72.80
2018-10-17T16:35:36.401Z,73.00
2018-10-17T16:38:04.325Z,73.40
2018-10-17T16:40:32.061Z,74.00
2018-10-17T16:42:59.786Z,74.10
2018-10-17T16:45:27.604Z,75.20
2018-10-17T16:47:55.385Z,74.80
2018-10-17T16:50:23.298Z,74.60
2018-10-17T16:52:50.959Z,75.50
2018-10-17T16:55:19.271Z,75.80
2018-10-17T16:57:47.916Z,75.80
2018-10-17T17:00:15.814Z,76.20
2018-10-17T17:02:43.832Z,76.80
2018-10-17T17:05:12.954Z,77.40
2018-10-17T17:07:41.021Z,78.20
2018-10-17T17:10:09.714Z,78.60
2018-10-17T17:12:37.590Z,79.00
2018-10-17T17:15:05.523Z,79.30
2018-10-17T17:17:33.591Z,80.20
2018-10-17T17:20:01.372Z,80.90
2018-10-17T17:22:30.306Z,81.70
2018-10-17T17:24:58.069Z,81.90
2018-10-17T17:27:25.889Z,82.60
2018-10-17T17:29:53.796Z,84.10
2018-10-17T17:32:21.476Z,84.80
2018-10-17T17:34:49.269Z,85.30
2018-10-17T17:37:17.174Z,85.20
2018-10-17T17:39:44.990Z,86.20
2018-10-17T17:42:12.721Z,87.60
2018-10-17T17:44:42.094Z,88.40
2018-10-17T17:47:10.065Z,90.10
2018-10-17T17:49:37.875Z,90.30
2018-10-17T17:52:05.850Z,90.90
2018-10-17T17:54:34.507Z,91.10
2018-10-17T17:57:02.842Z,91.50
2018-10-17T17:59:31.397Z,91.90
2018-10-17T18:01:59.403Z,92.90
2018-10-17T18:04:27.319Z,93.60
2018-10-17T18:06:55.061Z,94.60
2018-10-17T18:09:23.893Z,95.90
2018-10-17T18:11:51.849Z,96.60
2018-10-17T18:14:19.853Z,96.90
2018-10-17T18:16:47.954Z,97.10
2018-10-17T18:19:16.057Z,97.50
2018-10-17T18:21:44.267Z,97.80
2018-10-17T18:24:13.220Z,98.40
2018-10-17T18:26:41.124Z,99.20
2018-10-17T18:29:09.431Z,99.50
2018-10-17T18:31:37.985Z,99.90
2018-10-17T18:34:06.235Z,99.90
2018-10-17T18:36:34.687Z,99.90
2018-10-17T18:39:02.995Z,99.90
2018-10-17T18:41:32.021Z,99.90
2018-10-17T18:44:02.974Z,99.90
2018-10-17T18:46:31.183Z,99.90
2018-10-17T18:48:59.685Z,99.90
2018-10-17T18:51:28.892Z,99.90
2018-10-17T18:53:57.362Z,99.90
2018-10-17T18:56:25.677Z,99.90
2018-10-17T18:58:55.298Z,99.90
2018-10-17T19:01:23.502Z,99.90
2018-10-17T19:03:51.531Z,99.90
2018-10-17T19:06:19.592Z,99.90
2018-10-17T19:08:47.573Z,99.90
2018-10-17T19:11:16.293Z,99.90
2018-10-17T19:13:44.763Z,99.90
2018-10-17T19:16:12.850Z,99.90
2018-10-17T19:18:40.852Z,99.90
2018-10-17T19:21:08.836Z,99.90
2018-10-17T19:23:37.508Z,99.90
2018-10-17T19:26:05.414Z,99.90
2018-10-17T19:28:33.533Z,99.90
2018-10-17T19:31:02.120Z,99.90
2018-10-17T19:33:30.808Z,99.90
2018-10-17T19:35:59.256Z,99.90
2018-10-17T19:38:27.322Z,99.90
2018-10-17T19:40:55.340Z,99.90
2018-10-17T19:43:23.747Z,99.90
2018-10-17T19:45:52.560Z,99.90
2018-10-17T19:48:21.473Z,99.90
2018-10-17T19:50:50.096Z,99.90
2018-10-17T19:53:19.720Z,99.90
2018-10-17T19:55:47.661Z,99.90
2018-10-17T19:58:15.722Z,99.90
2018-10-17T20:00:43.894Z,99.90
2018-10-17T20:03:12.297Z,99.90
2018-10-17T20:05:40.698Z,99.90
2018-10-17T20:08:09.522Z,99.90
2018-10-17T20:10:37.553Z,99.90
2018-10-17T20:13:05.424Z,99.90
2018-10-17T20:15:33.563Z,99.90
2018-10-17T20:18:01.891Z,99.90
2018-10-17T20:20:30.483Z,99.90
2018-10-17T20:22:58.562Z,99.90
2018-10-17T20:25:26.718Z,99.90
2018-10-17T20:27:54.542Z,99.90
2018-10-17T20:30:22.748Z,99.90
2018-10-17T20:32:51.192Z,99.90
2018-10-17T20:35:19.582Z,99.90
2018-10-17T20:37:47.743Z,99.90
2018-10-17T20:40:15.907Z,99.90
2018-10-17T20:42:44.117Z,99.90
2018-10-17T20:45:12.749Z,99.90
2018-10-17T20:47:41.733Z,99.90
2018-10-17T20:50:09.675Z,99.90
2018-10-17T20:52:38.468Z,99.90
2018-10-17T20:55:07.829Z,99.90
2018-10-17T20:57:35.877Z,99.90
2018-10-17T21:00:04.104Z,99.90
2018-10-17T21:02:32.040Z,99.90
2018-10-17T21:05:00.542Z,99.90
2018-10-17T21:07:28.474Z,99.90
2018-10-17T21:09:56.338Z,99.90
2018-10-17T21:12:24.316Z,99.90
2018-10-17T21:14:52.455Z,99.90
2018-10-17T21:17:20.478Z,99.90
2018-10-17T21:19:48.609Z,99.90
2018-10-17T21:22:16.721Z,99.90
2018-10-17T21:24:44.870Z,99.90
2018-10-17T21:27:12.697Z,99.90
2018-10-17T21:29:40.490Z,99.90
2018-10-17T21:32:08.346Z,99.90
2018-10-17T21:34:36.143Z,99.90
2018-10-17T21:37:03.905Z,99.90
2018-10-17T21:39:31.719Z,99.90
2018-10-17T21:41:59.834Z,99.90
2018-10-17T21:44:27.801Z,99.90
2018-10-17T21:46:55.633Z,99.90
2018-10-17T21:49:23.501Z,99.90
2018-10-17T21:51:51.425Z,99.90
2018-10-17T21:54:19.210Z,99.90
2018-10-17T21:56:46.993Z,99.90
2018-10-17T21:59:14.764Z,99.90
2018-10-17T22:01:42.733Z,99.90
2018-10-17T22:04:10.644Z,99.90
2018-10-17T22:06:38.505Z,99.90
2018-10-17T22:09:07.916Z,99.90
2018-10-17T22:11:35.727Z,99.90
2018-10-17T22:14:04.787Z,99.90
2018-10-17T22:16:38.734Z,99.90
2018-10-17T22:21:53.001Z,99.90
2018-10-17T22:24:20.818Z,99.90
2018-10-17T22:26:48.565Z,99.90
2018-10-17T22:29:16.307Z,99.90
2018-10-17T22:31:44.097Z,99.90
2018-10-17T22:34:11.914Z,99.90
2018-10-17T22:36:39.796Z,99.90
2018-10-17T22:39:09.646Z,99.90
2018-10-17T22:41:37.540Z,99.90
2018-10-17T22:44:05.590Z,99.90
2018-10-17T22:46:33.549Z,99.90
2018-10-17T22:49:01.491Z,99.90
2018-10-17T22:51:29.495Z,99.90
2018-10-17T22:53:57.247Z,99.90
2018-10-17T22:56:25.010Z,99.90
2018-10-17T22:58:52.874Z,99.90
2018-10-17T23:01:21.296Z,99.90
2018-10-17T23:03:49.575Z,99.90
2018-10-17T23:06:17.423Z,99.90
2018-10-17T23:08:45.234Z,99.90
2018-10-17T23:11:13.873Z,99.90
2018-10-17T23:13:41.592Z,99.90
2018-10-17T23:16:09.424Z,99.90
2018-10-17T23:18:37.378Z,99.90
2018-10-17T23:21:05.244Z,99.90
2018-10-17T23:23:33.022Z,99.90
2018-10-17T23:26:00.852Z,99.90
2018-10-17T23:28:28.607Z,99.90
2018-10-17T23:30:57.239Z,99.90
2018-10-17T23:33:25.221Z,99.90
2018-10-17T23:35:53.052Z,99.90
2018-10-17T23:38:20.872Z,99.90
2018-10-17T23:40:48.859Z,99.90
2018-10-17T23:43:16.668Z,99.90
2018-10-17T23:45:44.697Z,99.90
2018-10-17T23:48:12.640Z,99.90
2018-10-17T23:50:42.251Z,99.90
2018-10-17T23:53:09.985Z,99.90
2018-10-17T23:55:37.821Z,99.90
2018-10-17T23:58:05.725Z,99.90
